Manouane, Canada
Current Conditions -  °F | °C
As of 5:00 AM on Saturday 29 Nov 2014 (Local Time) from CYRQ Reporting Station
Clear Clear  
Wind Chill:   Ceiling: Unl
Heat Index:   Visibility: 9mi
Dew Point:   Wind: 2mph
Humidity: 85%   Direction: 60°ENE
Pressure: 30.23"   Gusts: NA
Location:  47.22°N, 74.37°W
Report Text: CYRQ 291000Z AUTO 06002KT 9SM CLR M15/M17 A3023 RMK SLP240
Loading
Personal Weather Stations






























Interactive Weather Map New forecast layout! Learn more

10-Day Weather Forecast

Advertisements
Track Severe Weather on mobile